Time;durP1;ratioP1;P1;durP2;ratioP2;P2;SDS_P1;SDS_P2;PMS_P1;PMS_P2;Temp;Humidity;BMP_temperature;BMP_pressure;BME280_temperature;BME280_humidity;BME280_pressure;Samples;Min_cycle;Max_cycle;Signal;HPM_P1;HPM_P2
2021/01/13 00:01:53;;;;;;;17.33;2.95;;;;;;;-0.97;97.37;101529.59;5064743;28;20165;-63
2021/01/13 00:04:20;;;;;;;8.20;2.25;;;;;;;-0.98;97.54;101534.91;5063908;28;20063;-64
2021/01/13 00:06:49;;;;;;;8.32;2.50;;;;;;;-0.97;97.54;101528.69;5063436;28;20057;-64
2021/01/13 00:09:15;;;;;;;10.50;2.33;;;;;;;-0.95;97.59;101532.19;5063983;28;20052;-64
2021/01/13 00:11:41;;;;;;;11.98;3.00;;;;;;;-0.94;97.49;101520.72;5064129;28;20066;-64
2021/01/13 00:14:07;;;;;;;11.02;2.60;;;;;;;-0.92;97.31;101526.81;5064205;28;20053;-64
2021/01/13 00:16:33;;;;;;;9.73;2.40;;;;;;;-0.94;97.61;101524.22;5064812;28;20051;-63
2021/01/13 00:18:58;;;;;;;10.27;2.83;;;;;;;-0.80;97.57;101530.84;5064870;28;20088;-63
2021/01/13 00:21:25;;;;;;;9.38;2.25;;;;;;;-0.78;97.62;101529.00;5063860;28;20055;-64
2021/01/13 00:23:51;;;;;;;10.77;2.00;;;;;;;-0.29;97.68;101532.78;5063921;28;20048;-64
2021/01/13 00:26:18;;;;;;;13.25;1.95;;;;;;;0.07;97.12;101518.38;5062428;28;20382;-64
2021/01/13 00:28:44;;;;;;;8.70;1.88;;;;;;;0.23;96.50;101521.34;5063995;28;20041;-63
2021/01/13 00:31:12;;;;;;;8.60;1.60;;;;;;;0.26;96.55;101523.88;5061781;28;20136;-63
2021/01/13 00:36:06;;;;;;;15.27;1.70;;;;;;;0.29;95.45;101508.75;5027451;23;20491;-64
2021/01/13 00:38:32;;;;;;;11.27;1.60;;;;;;;0.34;95.20;101514.75;5022530;28;20049;-64
2021/01/13 00:40:58;;;;;;;3.60;1.38;;;;;;;0.22;94.36;101511.66;5022044;28;20046;-64
2021/01/13 00:43:24;;;;;;;3.92;1.25;;;;;;;0.14;94.66;101514.59;5021950;28;20053;-64
2021/01/13 00:45:51;;;;;;;9.93;1.42;;;;;;;0.29;94.35;101513.19;5023396;28;20259;-64
2021/01/13 00:48:17;;;;;;;7.88;1.17;;;;;;;0.25;93.97;101509.81;5021377;28;20439;-63
2021/01/13 00:50:43;;;;;;;6.43;1.02;;;;;;;0.21;93.73;101510.81;5022895;28;20041;-64
2021/01/13 00:53:09;;;;;;;8.43;1.00;;;;;;;0.21;93.70;101521.41;5022231;28;20064;-64
2021/01/13 00:55:35;;;;;;;6.18;0.90;;;;;;;0.28;93.77;101530.88;5021991;28;20795;-63
2021/01/13 00:58:01;;;;;;;6.25;1.10;;;;;;;0.62;93.75;101529.66;5020491;28;20088;-63
2021/01/13 01:00:27;;;;;;;6.70;1.80;;;;;;;0.88;93.48;101522.53;5022192;28;20602;-63
2021/01/13 01:02:53;;;;;;;13.93;1.58;;;;;;;1.19;93.10;101526.66;5021050;28;20073;-64
2021/01/13 01:05:20;;;;;;;6.07;1.20;;;;;;;1.08;92.77;101523.59;5022186;28;20115;-64
2021/01/13 01:07:46;;;;;;;8.25;1.30;;;;;;;1.01;93.01;101507.88;5022470;28;20045;-64
2021/01/13 01:10:18;;;;;;;11.80;1.30;;;;;;;0.99;93.36;101511.53;5022201;28;20097;-63
2021/01/13 01:12:45;;;;;;;6.93;1.27;;;;;;;0.97;93.82;101508.06;5019356;28;20521;-64
2021/01/13 01:15:13;;;;;;;7.45;0.98;;;;;;;0.91;93.87;101498.56;5021549;28;20141;-64
2021/01/13 01:17:39;;;;;;;8.05;1.65;;;;;;;0.84;93.65;101505.88;5022455;28;20107;-64
2021/01/13 01:20:06;;;;;;;5.60;1.40;;;;;;;1.01;93.94;101509.69;5020850;28;20600;-64
2021/01/13 01:22:32;;;;;;;10.85;1.60;;;;;;;1.03;93.77;101500.75;5022049;28;20067;-63
2021/01/13 01:24:58;;;;;;;4.28;0.68;;;;;;;1.03;93.78;101506.06;5023663;28;20125;-64
2021/01/13 01:27:24;;;;;;;5.53;1.23;;;;;;;1.09;93.88;101498.78;5072790;22;20053;-64
2021/01/13 01:29:51;;;;;;;7.35;1.85;;;;;;;1.04;93.73;101494.50;5022285;28;20061;-64
2021/01/13 01:32:17;;;;;;;10.00;0.98;;;;;;;1.08;94.26;101497.94;5019423;28;20096;-64
2021/01/13 01:34:43;;;;;;;8.13;1.55;;;;;;;1.10;93.82;101501.38;5022184;28;20426;-63
2021/01/13 01:37:08;;;;;;;3.25;1.00;;;;;;;1.13;93.51;101500.41;5022591;28;20050;-64
2021/01/13 01:39:34;;;;;;;6.90;1.33;;;;;;;1.05;93.55;101504.19;5021587;28;20050;-64
2021/01/13 01:42:00;;;;;;;5.70;1.02;;;;;;;0.85;93.85;101504.97;5023030;28;20061;-64
2021/01/13 01:44:26;;;;;;;7.57;1.15;;;;;;;0.97;94.25;101508.06;5020869;28;20568;-64
2021/01/13 01:47:03;;;;;;;3.63;1.15;;;;;;;0.95;94.42;101512.56;5022957;28;20050;-64
2021/01/13 01:49:31;;;;;;;8.55;1.83;;;;;;;0.83;94.05;101505.94;5022048;28;20038;-64
2021/01/13 01:52:06;;;;;;;6.50;1.48;;;;;;;0.86;94.40;101508.47;5021749;28;20060;-64
2021/01/13 01:54:34;;;;;;;4.15;1.40;;;;;;;0.82;94.01;101517.47;5018704;28;20065;-63
2021/01/13 01:57:03;;;;;;;3.78;1.08;;;;;;;0.76;94.24;101517.69;5020760;28;20454;-63
2021/01/13 01:59:39;;;;;;;9.73;1.83;;;;;;;0.65;94.83;101515.47;5022555;28;20449;-64
2021/01/13 02:02:09;;;;;;;7.50;1.83;;;;;;;0.63;94.83;101515.50;5020930;28;20414;-64
2021/01/13 02:04:42;;;;;;;8.20;1.88;;;;;;;0.57;94.72;101522.81;5020759;28;20437;-63
2021/01/13 02:07:29;;;;;;;8.35;2.03;;;;;;;0.60;94.70;101530.63;5020318;28;20049;-63
2021/01/13 02:09:57;;;;;;;8.40;1.60;;;;;;;0.40;94.71;101526.03;5020528;28;20050;-64
2021/01/13 02:12:31;;;;;;;9.60;2.33;;;;;;;0.47;95.24;101522.25;5018872;28;20050;-64
2021/01/13 02:14:58;;;;;;;9.40;1.73;;;;;;;0.52;94.97;101522.97;5020363;28;20056;-63
2021/01/13 02:17:31;;;;;;;10.18;1.83;;;;;;;0.46;95.42;101520.56;5020790;28;20054;-64
2021/01/13 02:20:15;;;;;;;10.40;1.80;;;;;;;0.44;95.29;101522.38;4992906;22;21369;-65
2021/01/13 02:22:54;;;;;;;12.63;1.80;;;;;;;0.42;95.48;101524.22;5039981;28;20095;-63
2021/01/13 02:25:49;;;;;;;8.37;1.43;;;;;;;0.29;96.02;101521.97;5039191;28;20045;-64
2021/01/13 02:28:20;;;;;;;9.95;2.00;;;;;;;0.22;95.82;101523.16;5042397;28;20835;-63
2021/01/13 02:31:05;;;;;;;6.88;1.50;;;;;;;0.20;96.00;101524.97;5041503;28;20053;-64
2021/01/13 02:33:37;;;;;;;11.20;1.77;;;;;;;0.24;96.21;101526.59;5038116;28;20344;-64
2021/01/13 02:36:17;;;;;;;7.22;1.70;;;;;;;0.16;96.43;101528.63;5038437;28;20371;-63
2021/01/13 02:38:47;;;;;;;7.15;1.55;;;;;;;0.08;96.03;101520.09;5040803;28;20058;-64
2021/01/13 02:41:17;;;;;;;11.50;2.05;;;;;;;0.22;96.52;101528.44;5038659;28;20062;-64
2021/01/13 02:43:53;;;;;;;9.30;1.55;;;;;;;0.29;96.66;101543.16;5037483;28;20041;-64
2021/01/13 02:46:38;;;;;;;7.97;1.52;;;;;;;0.50;97.05;101548.63;5038866;28;20087;-63
2021/01/13 02:49:08;;;;;;;14.85;1.58;;;;;;;1.02;96.58;101540.59;5038893;28;20053;-63
2021/01/13 02:51:36;;;;;;;13.10;1.30;;;;;;;1.07;96.99;101540.41;5039856;28;20429;-64
2021/01/13 02:54:12;;;;;;;10.90;1.85;;;;;;;1.07;96.83;101538.59;5037709;28;20114;-63
2021/01/13 02:56:43;;;;;;;12.55;1.38;;;;;;;1.02;96.65;101529.97;5039193;28;20110;-64
2021/01/13 02:59:14;;;;;;;10.93;1.60;;;;;;;0.99;96.60;101538.06;5039958;28;20054;-63
2021/01/13 03:01:42;;;;;;;5.95;1.90;;;;;;;1.03;96.66;101527.25;5041328;28;20107;-63
2021/01/13 03:04:09;;;;;;;12.48;1.98;;;;;;;1.02;97.21;101532.63;5035607;28;20056;-64
2021/01/13 03:06:42;;;;;;;6.82;1.40;;;;;;;1.02;97.16;101524.69;5038710;28;20044;-63
2021/01/13 03:09:09;;;;;;;9.40;1.45;;;;;;;1.03;97.40;101524.63;5038817;28;20059;-63
2021/01/13 03:11:37;;;;;;;7.80;1.33;;;;;;;0.97;97.07;101527.50;5038888;28;20456;-63
2021/01/13 03:14:21;;;;;;;6.45;1.48;;;;;;;1.10;97.03;101516.41;5034053;28;20115;-63
2021/01/13 03:16:58;;;;;;;6.43;1.25;;;;;;;1.07;97.25;101530.66;5041982;28;20045;-62
2021/01/13 03:19:42;;;;;;;8.57;1.60;;;;;;;1.07;97.53;101543.06;5041472;28;20055;-63
2021/01/13 03:22:17;;;;;;;11.70;1.25;;;;;;;1.08;97.32;101550.09;5011988;28;20046;-65
2021/01/13 03:24:50;;;;;;;6.90;1.48;;;;;;;1.02;97.58;101530.84;5020546;28;20479;-62
2021/01/13 03:27:17;;;;;;;7.88;1.58;;;;;;;1.12;97.14;101541.97;5019139;28;20054;-63
2021/01/13 03:29:47;;;;;;;7.50;1.45;;;;;;;1.11;97.73;101552.63;5020782;28;20057;-63
2021/01/13 03:32:17;;;;;;;9.07;1.70;;;;;;;1.13;97.53;101542.81;5011509;28;20041;-63
2021/01/13 03:35:02;;;;;;;7.57;1.48;;;;;;;1.19;97.18;101537.28;5012376;28;20043;-63
2021/01/13 03:37:48;;;;;;;12.43;1.90;;;;;;;1.17;97.21;101533.81;5019718;28;20096;-64
2021/01/13 03:40:18;;;;;;;6.20;1.67;;;;;;;1.17;97.39;101537.34;5020123;28;20058;-63
2021/01/13 03:42:51;;;;;;;7.90;1.42;;;;;;;1.19;97.07;101524.00;5018938;28;20392;-63
2021/01/13 03:45:26;;;;;;;10.57;1.70;;;;;;;1.19;96.88;101532.84;5019855;28;20456;-63
2021/01/13 03:48:08;;;;;;;21.05;1.90;;;;;;;1.24;96.93;101530.03;5019463;28;20048;-63
2021/01/13 03:50:37;;;;;;;14.45;2.17;;;;;;;1.21;97.00;101525.69;5019221;28;20104;-64
2021/01/13 03:53:05;;;;;;;11.80;1.70;;;;;;;1.17;96.71;101533.81;5018893;28;20118;-64
2021/01/13 03:55:33;;;;;;;7.38;1.55;;;;;;;1.14;97.16;101547.19;5019636;28;20045;-63
2021/01/13 03:58:36;;;;;;;8.48;1.70;;;;;;;1.11;97.28;101539.38;5011778;28;20050;-63
2021/01/13 04:01:23;;;;;;;8.60;1.45;;;;;;;1.04;96.76;101533.41;5017985;28;20049;-63
2021/01/13 04:04:01;;;;;;;5.75;1.65;;;;;;;1.07;96.91;101541.25;5019360;28;20046;-63
2021/01/13 04:06:28;;;;;;;10.05;2.17;;;;;;;1.14;97.63;101528.66;5019208;28;20506;-62
2021/01/13 04:08:55;;;;;;;8.57;1.70;;;;;;;1.21;97.38;101524.84;5018844;28;20049;-64
2021/01/13 04:11:22;;;;;;;8.02;1.65;;;;;;;1.23;97.23;101521.19;5019551;28;20053;-63
2021/01/13 04:13:50;;;;;;;10.73;1.55;;;;;;;1.25;97.48;101520.25;5019463;28;20045;-64
2021/01/13 04:16:18;;;;;;;5.80;1.30;;;;;;;1.27;97.53;101508.69;5017799;28;20613;-64
2021/01/13 04:18:46;;;;;;;12.02;1.75;;;;;;;1.28;97.00;101523.69;5019441;28;20057;-63
2021/01/13 04:21:14;;;;;;;8.68;1.27;;;;;;;1.39;97.51;101507.34;5015817;28;20401;-63
2021/01/13 04:23:40;;;;;;;7.22;1.35;;;;;;;1.55;97.21;101515.53;5017268;28;20042;-65
2021/01/13 04:26:07;;;;;;;4.82;1.38;;;;;;;1.63;97.27;101500.16;5020855;28;20053;-64
2021/01/13 04:28:34;;;;;;;9.43;1.80;;;;;;;1.82;96.88;101502.91;5018911;28;20042;-63
2021/01/13 04:31:00;;;;;;;11.52;1.45;;;;;;;1.88;95.88;101494.69;5019306;28;20065;-63
2021/01/13 04:33:28;;;;;;;11.20;1.67;;;;;;;1.99;95.25;101504.88;5018193;28;20034;-63
2021/01/13 04:35:54;;;;;;;14.65;2.55;;;;;;;2.15;95.22;101512.19;5015794;28;20530;-63
2021/01/13 04:38:23;;;;;;;8.45;1.70;;;;;;;2.22;94.18;101518.94;5019667;28;20049;-63
2021/01/13 04:41:00;;;;;;;8.60;2.33;;;;;;;2.26;93.41;101520.56;5023093;28;20124;-63
2021/01/13 04:43:49;;;;;;;10.00;1.85;;;;;;;2.23;93.78;101510.06;5020473;28;20057;-64
2021/01/13 04:46:30;;;;;;;14.55;2.03;;;;;;;2.06;93.58;101514.31;5022198;28;20445;-63
2021/01/13 04:49:06;;;;;;;13.98;1.85;;;;;;;2.00;93.38;101511.88;5020274;28;20068;-64
2021/01/13 04:51:34;;;;;;;12.75;2.00;;;;;;;1.95;93.39;101497.97;5020269;28;20054;-64
2021/01/13 04:54:05;;;;;;;14.23;2.08;;;;;;;1.92;93.25;101490.13;5021934;28;20726;-64
2021/01/13 04:56:38;;;;;;;14.98;2.80;;;;;;;1.83;93.60;101487.88;5020456;28;20509;-63
2021/01/13 04:59:47;;;;;;;9.52;1.98;;;;;;;1.70;93.86;101496.31;5021536;28;20045;-64
2021/01/13 05:02:17;;;;;;;9.02;1.70;;;;;;;1.61;93.86;101486.09;5006402;28;20061;-63
2021/01/13 05:05:01;;;;;;;10.52;2.10;;;;;;;1.64;94.60;101475.34;5020882;28;20037;-63
2021/01/13 05:07:35;;;;;;;9.30;1.75;;;;;;;1.64;93.88;101480.66;5019585;28;20423;-64
2021/01/13 05:10:05;;;;;;;9.60;1.90;;;;;;;1.60;94.36;101483.50;5021009;28;20049;-64
2021/01/13 05:12:51;;;;;;;15.23;2.00;;;;;;;1.54;93.90;101479.31;5021310;28;20530;-64
2021/01/13 05:15:19;;;;;;;8.68;1.90;;;;;;;1.63;93.81;101476.28;5019646;28;20056;-64
2021/01/13 05:18:03;;;;;;;12.88;1.80;;;;;;;1.52;93.66;101478.53;5020709;28;20048;-64
2021/01/13 05:20:31;;;;;;;6.65;1.60;;;;;;;1.54;94.48;101474.00;5019560;28;20100;-64
2021/01/13 05:22:59;;;;;;;11.55;2.20;;;;;;;1.49;93.92;101481.31;5020847;28;20406;-63
2021/01/13 05:25:46;;;;;;;14.90;2.13;;;;;;;1.46;94.79;101476.97;5019648;28;20058;-64
2021/01/13 05:28:15;;;;;;;18.70;2.42;;;;;;;1.43;94.88;101473.56;5022597;28;20044;-63
2021/01/13 05:30:42;;;;;;;10.88;1.75;;;;;;;1.50;94.46;101480.34;5019303;28;20064;-64
2021/01/13 05:33:11;;;;;;;11.77;1.90;;;;;;;1.38;94.29;101476.41;5022546;28;20045;-63
2021/01/13 05:35:44;;;;;;;11.18;1.85;;;;;;;1.30;95.24;101482.03;5023124;28;20056;-64
2021/01/13 05:38:13;;;;;;;12.52;2.20;;;;;;;1.30;95.47;101483.84;5019489;28;20037;-63
2021/01/13 05:40:41;;;;;;;14.23;1.92;;;;;;;1.26;94.88;101480.44;5021500;28;20060;-64
2021/01/13 05:43:08;;;;;;;14.90;3.38;;;;;;;1.28;94.80;101472.41;5019224;28;20045;-64
2021/01/13 05:45:38;;;;;;;15.65;2.20;;;;;;;1.32;94.94;101477.53;5018886;28;20046;-64
2021/01/13 05:48:12;;;;;;;15.82;2.20;;;;;;;1.25;94.47;101473.38;5018767;28;20144;-63
2021/01/13 05:50:40;;;;;;;9.88;1.77;;;;;;;1.30;94.18;101478.53;5018595;28;20073;-64
2021/01/13 05:53:07;;;;;;;8.38;1.75;;;;;;;1.28;93.99;101478.59;5019531;28;20132;-64
2021/01/13 05:55:34;;;;;;;12.35;2.35;;;;;;;1.21;94.03;101474.47;5019722;28;20104;-64
2021/01/13 05:58:02;;;;;;;10.77;1.80;;;;;;;1.30;93.58;101465.28;5020968;28;20367;-64
2021/01/13 06:00:30;;;;;;;9.15;1.80;;;;;;;1.26;93.30;101464.50;5019419;28;20049;-63
2021/01/13 06:02:58;;;;;;;11.88;1.70;;;;;;;1.33;92.91;101466.00;5020270;28;20505;-64
2021/01/13 06:05:29;;;;;;;8.82;1.95;;;;;;;1.25;92.85;101457.47;5019572;28;20046;-63
2021/01/13 06:07:58;;;;;;;14.65;2.30;;;;;;;1.22;92.84;101460.25;5021277;28;20049;-64
2021/01/13 06:10:30;;;;;;;10.43;1.85;;;;;;;1.24;93.08;101458.41;5018827;28;20063;-63
2021/01/13 06:12:59;;;;;;;9.35;2.13;;;;;;;1.37;91.86;101449.03;5021719;28;20057;-63
2021/01/13 06:15:26;;;;;;;;;;;;;;;1.36;91.79;101447.31;5019721;28;20124;-65
2021/01/13 06:17:53;;;;;;;10.07;2.08;;;;;;;1.39;91.76;101449.84;5020858;28;19921;-63
2021/01/13 06:20:20;;;;;;;17.83;3.25;;;;;;;1.49;90.65;101449.47;5018159;28;20060;-63
2021/01/13 06:22:48;;;;;;;9.27;2.03;;;;;;;1.48;90.10;101453.91;5018692;28;20418;-63
2021/01/13 06:25:21;;;;;;;18.92;2.13;;;;;;;1.40;90.69;101440.97;5016624;28;20133;-63
2021/01/13 06:28:04;;;;;;;12.88;2.30;;;;;;;1.46;90.04;101452.22;5018882;28;20053;-64
2021/01/13 06:30:32;;;;;;;9.02;2.00;;;;;;;1.47;90.28;101451.31;5018428;28;20100;-64
2021/01/13 06:33:03;;;;;;;9.88;2.22;;;;;;;1.44;89.44;101451.44;5016724;28;20050;-63
2021/01/13 06:38:43;;;;;;;10.82;2.13;;;;;;;1.59;88.50;101456.13;5055380;23;20386;-63
2021/01/13 06:41:11;;;;;;;8.80;2.05;;;;;;;1.57;88.19;101460.63;5039876;28;20049;-64
2021/01/13 06:43:37;;;;;;;9.55;1.70;;;;;;;1.54;88.06;101456.28;5041634;28;20049;-64
2021/01/13 06:46:17;;;;;;;13.70;2.00;;;;;;;1.48;88.50;101458.34;5039919;28;20072;-63
2021/01/13 06:48:43;;;;;;;9.32;2.13;;;;;;;1.48;87.85;101447.75;5039919;28;20071;-64
2021/01/13 06:51:15;;;;;;;16.15;2.03;;;;;;;1.39;88.63;101455.13;5038385;28;20049;-65
2021/01/13 06:53:45;;;;;;;10.48;2.65;;;;;;;1.36;88.59;101449.97;5039986;28;20049;-64
2021/01/13 06:56:13;;;;;;;15.25;1.73;;;;;;;1.42;88.33;101451.50;5043221;28;20080;-65
2021/01/13 06:58:40;;;;;;;11.13;2.20;;;;;;;1.53;88.48;101459.00;5038662;28;20046;-63
2021/01/13 07:01:06;;;;;;;10.57;1.83;;;;;;;1.56;87.59;101458.88;5037701;28;20048;-63
2021/01/13 07:03:33;;;;;;;9.35;1.90;;;;;;;1.52;87.66;101457.31;5041452;28;20045;-64
2021/01/13 07:06:01;;;;;;;9.40;1.58;;;;;;;1.52;87.16;101449.34;5040061;28;20544;-64
2021/01/13 07:08:28;;;;;;;18.05;1.80;;;;;;;1.51;86.92;101451.13;5040355;28;20049;-64
2021/01/13 07:11:02;;;;;;;12.18;1.80;;;;;;;1.48;87.52;101455.69;5040273;28;20046;-64
2021/01/13 07:13:29;;;;;;;8.45;1.75;;;;;;;1.54;87.36;101461.59;5038339;28;20115;-64
2021/01/13 07:15:59;;;;;;;7.45;1.80;;;;;;;1.57;87.13;101452.66;5041089;28;20049;-64
2021/01/13 07:18:25;;;;;;;7.70;1.90;;;;;;;1.57;87.12;101452.66;5038790;28;20071;-65
2021/01/13 07:20:51;;;;;;;7.90;1.70;;;;;;;1.60;87.58;101451.69;5041075;28;20403;-63
2021/01/13 07:23:18;;;;;;;9.25;1.70;;;;;;;1.58;87.30;101451.75;5039400;28;20061;-64
2021/01/13 07:25:45;;;;;;;17.10;2.08;;;;;;;1.55;87.79;101454.53;5041162;28;20056;-64
2021/01/13 07:28:12;;;;;;;6.85;2.00;;;;;;;1.54;87.48;101453.63;5038328;28;20459;-64
2021/01/13 07:30:40;;;;;;;8.93;1.70;;;;;;;1.52;86.96;101454.66;5039027;28;20041;-63
2021/01/13 07:33:12;;;;;;;9.98;2.53;;;;;;;1.48;87.60;101455.69;5040882;28;20049;-64
2021/01/13 07:35:44;;;;;;;11.20;1.95;;;;;;;1.49;87.34;101468.03;5038677;28;20605;-63
2021/01/13 07:38:14;;;;;;;8.45;2.00;;;;;;;1.51;86.78;101452.91;5038099;28;20083;-63
2021/01/13 07:40:56;;;;;;;6.75;1.90;;;;;;;1.44;87.14;101444.34;5041036;28;20041;-64
2021/01/13 07:43:54;;;;;;;9.45;2.30;;;;;;;1.40;86.59;101453.38;5040027;28;20102;-64
2021/01/13 07:46:27;;;;;;;11.05;1.83;;;;;;;1.31;87.52;101456.38;5040545;28;20052;-64
2021/01/13 07:49:16;;;;;;;8.43;1.60;;;;;;;1.25;87.71;101453.97;5038850;28;20521;-65
2021/01/13 07:51:47;;;;;;;8.95;1.52;;;;;;;1.32;88.28;101456.31;5031576;28;21103;-64
2021/01/13 07:54:27;;;;;;;7.60;1.80;;;;;;;1.32;87.94;101445.69;5035620;28;20107;-64
2021/01/13 07:56:55;;;;;;;6.45;1.98;;;;;;;1.37;88.18;101449.03;5039127;28;20049;-64
2021/01/13 07:59:39;;;;;;;13.68;1.92;;;;;;;1.40;88.22;101448.91;5034381;28;20133;-64
2021/01/13 08:02:48;;;;;;;11.35;2.15;;;;;;;1.55;87.79;101459.81;5035732;28;20060;-64
2021/01/13 08:05:52;;;;;;;12.82;2.58;;;;;;;1.60;87.21;101460.47;5039003;28;20050;-64
2021/01/13 08:08:23;;;;;;;11.48;2.60;;;;;;;1.62;88.00;101461.31;5040346;28;20057;-65
2021/01/13 08:10:50;;;;;;;10.23;2.13;;;;;;;1.66;87.34;101462.88;5038981;28;20140;-64
2021/01/13 08:13:39;;;;;;;10.27;1.95;;;;;;;1.69;87.19;101462.78;5039713;28;20041;-65
2021/01/13 08:16:45;;;;;;;8.88;2.08;;;;;;;1.85;86.38;101456.81;5044265;28;20132;-65
2021/01/13 08:19:56;;;;;;;9.15;1.80;;;;;;;1.80;85.97;101464.13;5043673;28;20068;-65
2021/01/13 08:22:25;;;;;;;12.98;2.25;;;;;;;1.69;86.77;101462.78;5042486;28;21614;-65
2021/01/13 08:24:59;;;;;;;15.50;1.98;;;;;;;1.65;86.67;101468.25;5044149;28;20041;-65
2021/01/13 08:27:27;;;;;;;5.45;2.03;;;;;;;1.60;87.18;101471.09;5043146;28;20459;-65
2021/01/13 08:29:56;;;;;;;7.78;2.00;;;;;;;1.57;87.41;101463.28;5043960;28;20057;-65
2021/01/13 08:32:30;;;;;;;11.43;1.77;;;;;;;1.60;86.65;101467.59;5041274;28;20051;-65
2021/01/13 08:35:04;;;;;;;11.02;2.15;;;;;;;1.65;87.40;101471.78;5043247;28;20195;-65
2021/01/13 08:37:32;;;;;;;8.20;1.88;;;;;;;1.70;87.50;101467.13;5042177;28;20060;-65
2021/01/13 08:39:59;;;;;;;15.77;2.15;;;;;;;1.75;87.47;101464.28;5042974;28;20053;-65
2021/01/13 08:42:29;;;;;;;15.48;2.33;;;;;;;1.90;86.92;101461.00;5043773;28;20044;-65
2021/01/13 08:44:56;;;;;;;7.28;1.65;;;;;;;2.00;86.48;101461.44;5043134;28;20130;-65
2021/01/13 08:47:23;;;;;;;8.35;2.08;;;;;;;2.02;87.37;101451.66;5042944;28;20120;-64
2021/01/13 08:49:49;;;;;;;10.57;1.75;;;;;;;2.14;86.30;101457.34;5043152;28;20064;-65
2021/01/13 08:52:45;;;;;;;10.52;1.92;;;;;;;2.20;85.40;101459.75;5053578;22;20057;31
2021/01/13 08:55:16;;;;;;;11.35;2.15;;;;;;;2.21;85.29;101453.47;4973440;28;20495;-64
2021/01/13 08:57:53;;;;;;;8.25;1.98;;;;;;;2.16;84.85;101455.50;4984517;28;20046;-64
2021/01/13 09:00:21;;;;;;;10.05;2.85;;;;;;;2.10;85.29;101452.16;4983440;28;20101;-64
2021/01/13 09:03:02;;;;;;;16.05;2.25;;;;;;;1.97;85.77;101456.28;4983601;28;20057;-63
2021/01/13 09:05:29;;;;;;;13.02;1.85;;;;;;;2.03;85.71;101453.38;4983214;28;20042;-65
2021/01/13 09:07:58;;;;;;;10.90;1.83;;;;;;;1.99;85.88;101459.75;4983673;28;20137;-66
2021/01/13 09:10:45;;;;;;;12.75;2.20;;;;;;;2.02;85.23;101453.44;4984134;28;20051;-64
2021/01/13 09:16:04;;;;;;;8.43;2.00;;;;;;;2.05;85.74;101453.31;4660357;23;20037;-65
2021/01/13 09:18:55;;;;;;;13.13;1.95;;;;;;;2.09;85.74;101450.44;5044688;22;20306;-64
2021/01/13 09:21:29;;;;;;;6.30;1.75;;;;;;;1.97;85.66;101445.66;5015532;28;20120;-65
2021/01/13 09:23:57;;;;;;;14.82;2.63;;;;;;;1.98;85.75;101460.66;5022606;28;20057;-65
2021/01/13 09:26:31;;;;;;;8.27;2.22;;;;;;;2.09;85.27;101454.88;5022416;28;20159;-65
2021/01/13 09:28:58;;;;;;;7.57;2.05;;;;;;;2.12;85.68;101456.53;5021289;28;20565;-64
2021/01/13 09:31:25;;;;;;;11.10;2.78;;;;;;;2.25;85.38;101457.72;5020279;28;20080;-63
2021/01/13 09:33:51;;;;;;;13.68;2.03;;;;;;;2.24;85.43;101456.03;5022599;28;20057;-64
2021/01/13 09:36:19;;;;;;;14.18;2.67;;;;;;;2.30;85.58;101455.75;5022077;28;20498;-64
2021/01/13 09:38:47;;;;;;;8.60;1.80;;;;;;;2.29;84.98;101456.66;5021243;28;20049;-63
2021/01/13 09:41:23;;;;;;;6.22;1.73;;;;;;;2.26;86.33;101456.81;5022272;28;20053;-64
2021/01/13 09:43:49;;;;;;;9.25;1.60;;;;;;;2.37;84.98;101451.00;5020393;28;20112;-63
2021/01/13 09:46:30;;;;;;;10.50;1.75;;;;;;;2.44;85.36;101453.34;5022049;28;20331;-64
2021/01/13 09:48:58;;;;;;;10.25;1.85;;;;;;;2.53;85.00;101461.81;5021335;28;20054;-65
2021/01/13 09:51:25;;;;;;;14.00;3.13;;;;;;;2.61;84.84;101460.53;5020594;28;20048;-66
2021/01/13 09:53:53;;;;;;;7.63;2.45;;;;;;;2.71;84.18;101462.75;5021952;28;20290;-66
2021/01/13 09:56:21;;;;;;;8.68;2.08;;;;;;;2.84;84.63;101453.28;5021249;28;20341;-63
2021/01/13 09:58:51;;;;;;;8.55;1.73;;;;;;;3.02;84.15;101456.91;5021686;28;20498;-65
2021/01/13 10:01:18;;;;;;;;;;;;;;;3.23;83.18;101460.31;5022296;28;20105;-64
2021/01/13 10:03:45;;;;;;;11.77;1.98;;;;;;;3.27;82.70;101455.72;5019933;28;19932;-64
2021/01/13 10:06:13;;;;;;;13.48;2.20;;;;;;;3.31;82.85;101450.19;5020289;28;20062;-63
2021/01/13 10:08:39;;;;;;;7.88;1.73;;;;;;;3.41;82.72;101453.22;5021601;28;20052;-64
2021/01/13 10:11:07;;;;;;;8.32;1.67;;;;;;;3.45;82.50;101461.94;5020089;28;20491;-63
2021/01/13 10:13:36;;;;;;;9.68;1.52;;;;;;;3.47;82.05;101457.41;5021468;28;20077;-64
2021/01/13 10:16:03;;;;;;;13.15;2.38;;;;;;;3.47;82.40;101458.25;5020861;28;20459;-64
2021/01/13 10:18:30;;;;;;;6.32;1.88;;;;;;;3.54;81.50;101447.31;5022282;28;20049;-63
2021/01/13 10:20:56;;;;;;;9.48;2.10;;;;;;;3.50;81.76;101457.25;5020794;28;20053;-64
2021/01/13 10:23:26;;;;;;;10.10;2.50;;;;;;;3.45;81.15;101452.16;5021196;28;20449;-64
2021/01/13 10:26:02;;;;;;;7.68;2.10;;;;;;;3.41;82.03;101450.56;5021073;28;20133;-64
2021/01/13 10:31:26;;;;;;;12.63;1.80;;;;;;;3.44;81.96;101454.88;4983690;23;20122;-65
2021/01/13 10:33:53;;;;;;;11.88;1.77;;;;;;;3.60;82.08;101452.34;5039860;28;20513;-65
2021/01/13 10:36:30;;;;;;;9.90;2.22;;;;;;;3.81;80.77;101456.59;5039473;28;20045;-64
2021/01/13 10:38:57;;;;;;;13.38;2.88;;;;;;;3.92;80.35;101448.03;5038135;28;20056;-63
2021/01/13 10:41:30;;;;;;;10.60;1.98;;;;;;;4.00;79.90;101444.97;5036086;28;20094;-65
2021/01/13 10:44:02;;;;;;;11.00;2.42;;;;;;;4.05;79.87;101437.63;5037430;28;20048;-65
2021/01/13 10:46:48;;;;;;;8.95;2.28;;;;;;;4.11;79.26;101453.28;5040285;28;20045;-65
2021/01/13 10:49:43;;;;;;;14.45;2.33;;;;;;;4.17;79.29;101450.28;5037895;28;20048;-64
2021/01/13 10:52:12;;;;;;;10.55;2.20;;;;;;;4.10;78.83;101440.91;5028113;28;20041;-63
2021/01/13 10:54:40;;;;;;;9.90;2.15;;;;;;;4.12;79.37;101444.34;5039002;28;20049;-65
2021/01/13 10:57:08;;;;;;;10.90;1.90;;;;;;;4.11;78.47;101447.97;5039054;28;20057;-63
2021/01/13 10:59:35;;;;;;;11.95;2.00;;;;;;;4.14;78.81;101450.47;5038653;28;20446;-65
2021/01/13 11:02:04;;;;;;;11.75;1.98;;;;;;;4.14;79.16;101434.47;5039421;28;20092;-65
2021/01/13 11:04:40;;;;;;;11.00;2.00;;;;;;;4.07;79.18;101425.06;5039651;28;20045;-64
2021/01/13 11:07:10;;;;;;;7.18;1.60;;;;;;;3.99;79.56;101438.81;5035490;28;20041;-64
2021/01/13 11:09:37;;;;;;;;;;;;;;;3.93;79.49;101422.25;5039429;28;20079;-64
2021/01/13 11:12:04;;;;;;;12.68;2.30;;;;;;;3.91;80.17;101435.66;5037489;28;19924;-65
2021/01/13 11:14:36;;;;;;;10.38;2.60;;;;;;;3.84;79.94;101420.94;5037589;28;20477;-63
2021/01/13 11:17:05;;;;;;;14.23;3.78;;;;;;;3.89;79.82;101418.03;5039963;28;20060;-64
2021/01/13 11:19:31;;;;;;;;;;;;;;;3.89;80.06;101404.72;5040700;28;20099;-64
2021/01/13 11:21:59;;;;;;;9.50;1.98;;;;;;;3.95;80.09;101407.09;5040803;28;20343;-64
2021/01/13 11:24:40;;;;;;;16.40;3.63;;;;;;;4.00;80.62;101402.34;5039541;28;20049;-64
2021/01/13 11:27:10;;;;;;;7.32;2.30;;;;;;;4.05;80.11;101400.34;5039245;28;20057;-65
2021/01/13 11:29:38;;;;;;;7.05;2.53;;;;;;;4.10;80.08;101403.59;5039773;28;20081;-64
2021/01/13 11:32:07;;;;;;;14.20;2.10;;;;;;;4.16;79.56;101403.28;5039018;28;20072;-64
2021/01/13 11:34:34;;;;;;;12.40;1.93;;;;;;;4.31;79.80;101390.94;5041385;28;20049;-63
2021/01/13 11:37:18;;;;;;;11.00;1.90;;;;;;;4.38;79.51;101386.13;5039633;28;20502;-63
2021/01/13 11:39:46;;;;;;;9.23;1.88;;;;;;;4.35;79.58;101397.81;5039659;28;20132;-63
2021/01/13 11:42:21;;;;;;;12.63;2.25;;;;;;;4.42;79.63;101397.47;5037969;28;20568;-64
2021/01/13 11:45:06;;;;;;;12.70;2.08;;;;;;;4.46;78.85;101393.72;5037030;28;20049;-63
2021/01/13 11:47:35;;;;;;;8.63;2.33;;;;;;;4.42;78.72;101398.38;5036144;28;20060;-64
2021/01/13 12:34:44;;;;;;;9.93;2.28;;;;;;;4.93;77.80;101338.69;4999790;23;20302;-66
2021/01/13 12:37:09;;;;;;;5.95;2.03;;;;;;;5.01;76.71;101339.13;4997397;28;20511;-64
2021/01/13 12:39:36;;;;;;;13.27;2.65;;;;;;;4.94;76.79;101329.75;5000255;28;20050;-66
2021/01/13 12:42:05;;;;;;;14.20;3.65;;;;;;;4.86;76.80;101323.03;4991382;22;20234;-64
2021/01/13 12:44:33;;;;;;;7.88;2.50;;;;;;;4.83;77.46;101323.22;5016834;28;20589;-64
2021/01/13 12:47:02;;;;;;;11.52;2.35;;;;;;;4.70;77.72;101316.88;5017244;28;20057;-65